createdAt,value
2022-12-18T00:01:57.557Z,9.93
2022-12-18T00:04:26.272Z,11.67
2022-12-18T00:06:54.709Z,9.67
2022-12-18T00:09:22.301Z,10.20
2022-12-18T00:11:52.121Z,9.87
2022-12-18T00:14:19.566Z,11.27
2022-12-18T00:16:47.671Z,9.17
2022-12-18T00:19:16.104Z,10.33
2022-12-18T00:21:44.388Z,10.60
2022-12-18T00:24:12.437Z,9.20
2022-12-18T00:26:40.439Z,9.63
2022-12-18T00:29:12.191Z,10.27
2022-12-18T00:31:39.725Z,9.87
2022-12-18T00:34:07.607Z,8.73
2022-12-18T00:36:35.625Z,9.20
2022-12-18T00:39:05.909Z,9.70
2022-12-18T00:41:52.755Z,9.97
2022-12-18T00:44:20.966Z,8.27
2022-12-18T00:46:49.151Z,9.73
2022-12-18T00:49:18.993Z,10.83
2022-12-18T00:51:47.663Z,9.20
2022-12-18T00:54:15.477Z,9.50
2022-12-18T00:56:49.214Z,10.10
2022-12-18T00:59:19.978Z,10.50
2022-12-18T01:01:48.037Z,9.07
2022-12-18T01:04:16.318Z,10.37
2022-12-18T01:06:46.333Z,9.97
2022-12-18T01:09:13.757Z,11.10
2022-12-18T01:11:41.342Z,11.30
2022-12-18T01:14:08.800Z,9.40
2022-12-18T01:16:38.480Z,9.93
2022-12-18T01:19:05.772Z,10.60
2022-12-18T01:21:33.736Z,9.93
2022-12-18T01:24:05.336Z,9.67
2022-12-18T01:26:32.698Z,11.53
2022-12-18T01:28:59.989Z,10.27
2022-12-18T01:31:30.077Z,10.90
2022-12-18T01:33:58.040Z,9.80
2022-12-18T01:36:30.973Z,9.83
2022-12-18T01:39:01.448Z,9.67
2022-12-18T01:41:51.176Z,10.27
2022-12-18T01:44:52.509Z,9.67
2022-12-18T01:47:34.324Z,9.77
2022-12-18T01:50:12.312Z,10.40
2022-12-18T01:52:41.298Z,10.40
2022-12-18T01:55:10.054Z,10.70
2022-12-18T01:57:38.756Z,11.20
2022-12-18T02:00:12.267Z,10.40
2022-12-18T02:02:44.355Z,10.67
2022-12-18T02:05:33.205Z,10.70
2022-12-18T02:08:27.281Z,9.80
2022-12-18T02:11:24.065Z,10.87
2022-12-18T02:14:01.478Z,9.53
2022-12-18T02:16:51.191Z,10.03
2022-12-18T02:19:52.690Z,10.17
2022-12-18T02:22:35.721Z,9.70
2022-12-18T02:25:28.585Z,10.23
2022-12-18T02:28:00.676Z,9.60
2022-12-18T02:30:32.517Z,10.83
2022-12-18T02:33:03.244Z,10.77
2022-12-18T02:35:32.045Z,10.77
2022-12-18T02:38:02.137Z,9.43
2022-12-18T02:40:32.111Z,10.17
2022-12-18T02:43:12.392Z,10.27
2022-12-18T02:45:50.590Z,10.27
2022-12-18T02:48:23.623Z,9.73
2022-12-18T02:51:27.990Z,9.60
2022-12-18T02:54:14.982Z,10.10
2022-12-18T02:56:55.022Z,9.70
2022-12-18T02:59:31.673Z,9.47
2022-12-18T03:02:27.379Z,9.63
2022-12-18T03:05:15.170Z,11.27
2022-12-18T03:07:54.048Z,10.23
2022-12-18T03:10:28.684Z,9.53
2022-12-18T03:13:09.650Z,9.83
2022-12-18T03:15:46.481Z,10.83
2022-12-18T03:18:21.301Z,9.50
2022-12-18T03:20:52.222Z,10.23
2022-12-18T03:23:30.185Z,10.10
2022-12-18T03:26:07.651Z,9.63
2022-12-18T03:28:44.825Z,10.07
2022-12-18T03:31:14.090Z,9.50
2022-12-18T03:33:57.283Z,9.67
2022-12-18T03:36:31.313Z,9.53
2022-12-18T03:38:58.902Z,9.03
2022-12-18T03:41:33.369Z,9.97
2022-12-18T03:44:58.660Z,9.10
2022-12-18T03:47:46.974Z,9.13
2022-12-18T03:50:18.479Z,9.57
2022-12-18T03:53:09.912Z,9.87
2022-12-18T03:55:38.371Z,10.73
2022-12-18T03:58:08.441Z,9.77
2022-12-18T04:00:53.133Z,10.97
2022-12-18T04:03:26.233Z,10.80
2022-12-18T04:05:55.692Z,10.20
2022-12-18T04:08:24.066Z,9.70
2022-12-18T04:11:01.132Z,8.53
2022-12-18T04:13:36.289Z,9.33
2022-12-18T04:16:07.402Z,10.70
2022-12-18T04:18:35.401Z,10.00
2022-12-18T04:21:03.666Z,9.20
2022-12-18T04:23:30.958Z,10.47
2022-12-18T04:25:59.828Z,10.37
2022-12-18T04:28:45.902Z,9.90
2022-12-18T04:31:14.190Z,10.53
2022-12-18T04:33:42.262Z,10.37
2022-12-18T04:36:10.703Z,10.90
2022-12-18T04:38:38.157Z,10.80
2022-12-18T04:41:09.388Z,11.33
2022-12-18T04:43:37.512Z,10.60
2022-12-18T04:46:06.237Z,10.53
2022-12-18T04:48:34.332Z,12.93
2022-12-18T04:51:03.938Z,11.63
2022-12-18T04:53:31.189Z,12.97
2022-12-18T04:56:13.766Z,10.97
2022-12-18T04:58:42.623Z,11.07
2022-12-18T05:01:11.359Z,9.70
2022-12-18T05:03:39.609Z,10.83
2022-12-18T05:06:08.082Z,11.87
2022-12-18T05:08:35.417Z,11.73
2022-12-18T05:11:05.620Z,10.27
2022-12-18T05:13:33.596Z,11.93
2022-12-18T05:16:01.184Z,12.10
2022-12-18T05:18:29.152Z,11.00
2022-12-18T05:20:56.442Z,10.33
2022-12-18T05:23:25.097Z,11.20
2022-12-18T05:25:53.297Z,11.17
2022-12-18T05:28:21.544Z,11.30
2022-12-18T05:30:50.770Z,10.53
2022-12-18T05:33:19.243Z,9.73
2022-12-18T05:35:52.814Z,11.23
2022-12-18T05:38:20.973Z,11.13
2022-12-18T05:40:51.944Z,9.97
2022-12-18T05:43:21.642Z,10.97
2022-12-18T05:45:50.015Z,12.00
2022-12-18T05:48:17.865Z,11.07
2022-12-18T05:50:47.136Z,12.03
2022-12-18T05:53:17.493Z,11.40
2022-12-18T05:55:45.420Z,10.93
2022-12-18T05:58:14.162Z,11.53
2022-12-18T06:00:43.312Z,11.27
2022-12-18T06:03:11.895Z,11.27
2022-12-18T06:05:41.741Z,11.37
2022-12-18T06:08:09.731Z,11.33
2022-12-18T06:10:37.361Z,12.03
2022-12-18T06:13:05.217Z,11.13
2022-12-18T06:15:32.882Z,12.43
2022-12-18T06:18:01.610Z,13.13
2022-12-18T06:20:33.207Z,11.30
2022-12-18T06:23:01.163Z,12.70
2022-12-18T06:25:28.637Z,12.13
2022-12-18T06:27:56.006Z,12.50
2022-12-18T06:30:23.583Z,12.97
2022-12-18T06:32:56.301Z,12.10
2022-12-18T06:35:24.862Z,10.53
2022-12-18T06:37:52.342Z,11.17
2022-12-18T06:40:19.937Z,11.87
2022-12-18T06:42:47.209Z,11.83
2022-12-18T06:45:17.295Z,13.43
2022-12-18T06:47:44.656Z,12.50
2022-12-18T06:50:12.716Z,12.93
2022-12-18T06:52:41.244Z,12.33
2022-12-18T06:55:10.310Z,11.93
2022-12-18T06:57:38.284Z,12.60
2022-12-18T07:00:07.390Z,13.13
2022-12-18T07:02:34.915Z,11.83
2022-12-18T07:05:08.916Z,11.60
2022-12-18T07:07:37.966Z,10.93
2022-12-18T07:10:05.698Z,11.87
2022-12-18T07:12:33.088Z,12.83
2022-12-18T07:15:00.333Z,11.63
2022-12-18T07:17:27.721Z,11.60
2022-12-18T07:19:55.124Z,11.70
2022-12-18T07:22:22.592Z,11.73
2022-12-18T07:24:50.050Z,12.00
2022-12-18T07:27:17.680Z,10.40
2022-12-18T07:29:45.483Z,13.27
2022-12-18T07:32:12.696Z,12.53
2022-12-18T07:34:40.692Z,12.60
2022-12-18T07:37:07.972Z,12.07
2022-12-18T07:40:00.297Z,12.30
2022-12-18T07:42:33.767Z,11.37
2022-12-18T07:45:01.886Z,11.97
2022-12-18T07:47:32.538Z,11.60
2022-12-18T07:49:59.828Z,12.47
2022-12-18T07:52:27.587Z,10.30
2022-12-18T07:54:54.885Z,11.50
2022-12-18T07:57:49.086Z,12.60
2022-12-18T08:00:10.051Z,11.77
2022-12-18T08:02:40.506Z,12.57
2022-12-18T08:05:09.892Z,12.73
2022-12-18T08:07:37.335Z,12.70
2022-12-18T08:10:04.986Z,12.37
2022-12-18T08:12:33.605Z,11.57
2022-12-18T08:15:00.983Z,13.67
2022-12-18T08:17:28.208Z,11.40
2022-12-18T08:19:55.511Z,13.70
2022-12-18T08:22:22.853Z,13.00
2022-12-18T08:24:50.166Z,11.53
2022-12-18T08:27:33.002Z,13.70
2022-12-18T08:30:00.782Z,11.37
2022-12-18T08:32:29.086Z,11.80
2022-12-18T08:34:56.526Z,12.57
2022-12-18T08:37:23.780Z,11.93
2022-12-18T08:39:51.144Z,12.80
2022-12-18T08:42:36.839Z,11.60
2022-12-18T08:45:05.233Z,12.67
2022-12-18T08:47:32.573Z,11.87
2022-12-18T08:49:59.879Z,11.70
2022-12-18T08:52:27.448Z,11.63
2022-12-18T08:54:54.724Z,12.50
2022-12-18T08:57:21.995Z,12.27
2022-12-18T08:59:49.438Z,12.33
2022-12-18T09:02:16.916Z,11.27
2022-12-18T09:04:46.759Z,11.80
2022-12-18T09:07:14.224Z,11.07
2022-12-18T09:09:41.570Z,11.43
2022-12-18T09:12:08.839Z,11.10
2022-12-18T09:14:36.838Z,11.47
2022-12-18T09:17:04.299Z,11.57
2022-12-18T09:19:31.773Z,11.07
2022-12-18T09:21:59.009Z,11.23
2022-12-18T09:24:26.278Z,11.27
2022-12-18T09:26:58.113Z,11.53
2022-12-18T09:29:25.678Z,12.10
2022-12-18T09:31:52.916Z,10.50
2022-12-18T09:34:22.687Z,10.17
2022-12-18T09:36:50.157Z,11.60
2022-12-18T09:39:18.001Z,10.00
2022-12-18T09:41:55.999Z,11.10
2022-12-18T09:44:45.203Z,10.57
2022-12-18T09:47:25.286Z,9.43
2022-12-18T09:50:06.243Z,10.20
2022-12-18T09:52:47.635Z,10.93
2022-12-18T09:55:17.913Z,12.13
2022-12-18T09:57:52.066Z,11.90
2022-12-18T10:00:22.654Z,10.43
2022-12-18T10:02:53.126Z,10.60
2022-12-18T10:05:36.938Z,10.67
2022-12-18T10:08:40.702Z,11.57
2022-12-18T10:11:23.880Z,11.10
2022-12-18T10:14:18.679Z,10.67
2022-12-18T10:17:01.842Z,12.10
2022-12-18T10:19:42.257Z,11.50
2022-12-18T10:22:17.450Z,11.20
2022-12-18T10:25:11.079Z,11.03
2022-12-18T10:27:38.542Z,11.17
2022-12-18T10:30:15.556Z,12.33
2022-12-18T10:32:43.186Z,11.80
2022-12-18T10:35:28.762Z,11.57
2022-12-18T10:38:06.621Z,10.27
2022-12-18T10:40:48.493Z,10.67
2022-12-18T10:43:20.136Z,10.90
2022-12-18T10:46:02.474Z,11.20
2022-12-18T10:48:32.296Z,10.90
2022-12-18T10:51:10.858Z,9.77
2022-12-18T10:53:42.989Z,12.07
2022-12-18T10:56:10.666Z,10.47
2022-12-18T10:58:39.983Z,11.03
2022-12-18T11:01:07.669Z,10.10
2022-12-18T11:03:42.518Z,10.70
2022-12-18T11:06:25.378Z,10.80
2022-12-18T11:09:18.863Z,11.03
2022-12-18T11:11:55.123Z,10.27
2022-12-18T11:14:26.031Z,10.80
2022-12-18T11:17:25.507Z,10.30
2022-12-18T11:19:42.643Z,10.90
2022-12-18T11:22:31.330Z,9.77
2022-12-18T11:25:36.700Z,11.80
2022-12-18T11:28:30.306Z,10.13
2022-12-18T11:31:20.420Z,9.63
2022-12-18T11:34:29.060Z,10.40
2022-12-18T11:37:00.655Z,10.50
2022-12-18T11:39:56.219Z,9.57
2022-12-18T11:42:51.517Z,10.43
2022-12-18T11:45:28.622Z,10.57
2022-12-18T11:48:27.308Z,10.47
2022-12-18T11:50:57.133Z,11.17
2022-12-18T11:53:26.500Z,11.87
2022-12-18T11:56:33.099Z,11.60
2022-12-18T11:59:13.784Z,11.13
2022-12-18T12:01:44.357Z,12.00
2022-12-18T12:04:47.892Z,12.00
2022-12-18T12:07:21.529Z,10.53
2022-12-18T12:10:19.882Z,11.27
2022-12-18T12:13:10.265Z,11.93
2022-12-18T12:15:50.731Z,10.93
2022-12-18T12:18:36.522Z,12.00
2022-12-18T12:21:18.509Z,10.73
2022-12-18T12:24:19.187Z,11.03
2022-12-18T12:26:51.014Z,12.20
2022-12-18T12:29:42.328Z,11.83
2022-12-18T12:32:32.523Z,12.57
2022-12-18T12:35:25.347Z,11.17
2022-12-18T12:38:21.306Z,13.23
2022-12-18T12:41:03.410Z,12.47
2022-12-18T12:43:47.971Z,12.80
2022-12-18T12:46:20.777Z,12.67
2022-12-18T12:48:56.625Z,12.40
2022-12-18T12:51:35.296Z,14.60
2022-12-18T12:54:07.584Z,14.10
2022-12-18T12:56:55.617Z,12.50
2022-12-18T13:00:06.101Z,11.90
2022-12-18T13:02:53.697Z,13.43
2022-12-18T13:05:38.052Z,12.17
2022-12-18T13:08:08.766Z,13.30
2022-12-18T13:10:41.774Z,12.73
2022-12-18T13:13:17.276Z,12.93
2022-12-18T13:16:07.607Z,14.13
2022-12-18T13:18:35.510Z,12.47
2022-12-18T13:21:26.339Z,13.93
2022-12-18T13:23:58.645Z,12.50
2022-12-18T13:26:31.334Z,12.73
2022-12-18T13:29:03.560Z,13.40
2022-12-18T13:31:43.568Z,13.63
2022-12-18T13:34:26.816Z,13.07
2022-12-18T13:36:56.908Z,13.67
2022-12-18T13:39:34.787Z,14.20
2022-12-18T13:42:05.819Z,13.17
2022-12-18T13:44:40.668Z,13.97
2022-12-18T13:47:33.689Z,13.20
2022-12-18T13:50:09.897Z,13.93
2022-12-18T13:52:40.748Z,13.90
2022-12-18T13:55:17.278Z,13.77
2022-12-18T13:57:44.717Z,13.77
2022-12-18T14:00:25.874Z,13.93
2022-12-18T14:02:53.738Z,14.00
2022-12-18T14:05:28.938Z,13.60
2022-12-18T14:08:00.121Z,15.13
2022-12-18T14:10:45.577Z,13.17
2022-12-18T14:13:40.758Z,14.60
2022-12-18T14:16:09.096Z,13.97
2022-12-18T14:18:43.826Z,13.60
2022-12-18T14:21:24.273Z,13.23
2022-12-18T14:24:16.758Z,13.90
2022-12-18T14:26:48.271Z,13.27
2022-12-18T14:29:27.764Z,13.93
2022-12-18T14:32:19.240Z,13.83
2022-12-18T14:34:55.086Z,14.37
2022-12-18T14:37:26.322Z,14.50
2022-12-18T14:40:10.867Z,13.83
2022-12-18T14:42:38.706Z,14.80
2022-12-18T14:45:41.707Z,13.97
2022-12-18T14:48:12.762Z,14.57
2022-12-18T14:50:41.911Z,15.00
2022-12-18T14:53:37.460Z,14.17
2022-12-18T14:56:17.729Z,14.63
2022-12-18T14:58:55.332Z,13.57
2022-12-18T15:01:32.842Z,13.07
2022-12-18T15:04:01.097Z,14.13
2022-12-18T15:06:30.517Z,15.60
2022-12-18T15:08:59.390Z,13.30
2022-12-18T15:11:47.395Z,14.97
2022-12-18T15:14:44.122Z,14.57
2022-12-18T15:17:26.129Z,15.63
2022-12-18T15:20:04.323Z,14.80
2022-12-18T15:22:37.698Z,14.33
2022-12-18T15:25:25.009Z,14.93
2022-12-18T15:27:52.454Z,14.00
2022-12-18T15:30:24.695Z,14.73
2022-12-18T15:32:53.669Z,14.33
2022-12-18T15:35:22.451Z,14.00
2022-12-18T15:37:51.396Z,15.87
2022-12-18T15:40:21.933Z,14.83
2022-12-18T15:43:10.750Z,15.90
2022-12-18T15:45:38.055Z,15.37
2022-12-18T15:48:23.366Z,16.47
2022-12-18T15:50:57.765Z,15.63
2022-12-18T15:53:27.374Z,15.33
2022-12-18T15:56:13.117Z,16.83
2022-12-18T15:58:40.431Z,15.33
2022-12-18T16:01:10.153Z,15.83
2022-12-18T16:03:37.689Z,15.93
2022-12-18T16:06:05.124Z,14.93
2022-12-18T16:08:33.028Z,14.93
2022-12-18T16:11:01.001Z,15.67
2022-12-18T16:13:28.388Z,17.20
2022-12-18T16:15:55.778Z,16.10
2022-12-18T16:18:23.236Z,16.03
2022-12-18T16:20:50.546Z,16.53
2022-12-18T16:23:17.750Z,16.87
2022-12-18T16:25:44.943Z,16.70
2022-12-18T16:28:12.219Z,16.57
2022-12-18T16:30:39.461Z,16.03
2022-12-18T16:33:07.692Z,19.47
2022-12-18T16:35:37.943Z,18.13
2022-12-18T16:38:05.258Z,16.87
2022-12-18T16:40:33.367Z,16.83
2022-12-18T16:43:00.540Z,16.60
2022-12-18T16:45:33.908Z,16.83
2022-12-18T16:48:01.130Z,17.87
2022-12-18T16:50:28.377Z,15.83
2022-12-18T16:52:55.619Z,16.63
2022-12-18T16:55:22.870Z,18.40
2022-12-18T16:57:50.086Z,19.30
2022-12-18T17:00:18.206Z,17.50
2022-12-18T17:02:46.716Z,17.23
2022-12-18T17:05:14.512Z,16.37
2022-12-18T17:07:41.817Z,16.40
2022-12-18T17:10:10.009Z,17.23
2022-12-18T17:12:37.311Z,16.77
2022-12-18T17:15:04.996Z,17.43
2022-12-18T17:17:32.296Z,16.67
2022-12-18T17:19:59.826Z,18.07
2022-12-18T17:22:28.042Z,18.30
2022-12-18T17:24:55.553Z,19.50
2022-12-18T17:27:22.843Z,18.03
2022-12-18T17:29:50.059Z,17.50
2022-12-18T17:32:18.290Z,18.00
2022-12-18T17:34:46.020Z,17.10
2022-12-18T17:37:13.810Z,17.80
2022-12-18T17:39:41.106Z,18.23
2022-12-18T17:42:14.808Z,18.63
2022-12-18T17:44:44.020Z,19.10
2022-12-18T17:47:12.986Z,18.33
2022-12-18T17:49:40.657Z,19.07
2022-12-18T17:52:08.037Z,17.60
2022-12-18T17:54:39.379Z,20.03
2022-12-18T17:57:06.641Z,19.47
2022-12-18T17:59:33.915Z,18.30
2022-12-18T18:02:01.316Z,18.07
2022-12-18T18:04:29.087Z,18.23
2022-12-18T18:06:56.307Z,18.23
2022-12-18T18:09:23.628Z,19.27
2022-12-18T18:12:09.998Z,17.90
2022-12-18T18:14:37.218Z,18.70
2022-12-18T18:17:05.626Z,18.37
2022-12-18T18:19:33.399Z,18.07
2022-12-18T18:22:01.604Z,19.53
2022-12-18T18:24:29.923Z,19.17
2022-12-18T18:26:59.958Z,20.23
2022-12-18T18:29:30.462Z,18.07
2022-12-18T18:31:58.689Z,19.80
2022-12-18T18:34:28.905Z,19.63
2022-12-18T18:36:56.217Z,19.97
2022-12-18T18:39:26.816Z,19.93
2022-12-18T18:41:54.254Z,16.47
2022-12-18T18:44:26.065Z,19.33
2022-12-18T18:46:58.279Z,19.90
2022-12-18T18:49:27.514Z,19.33
2022-12-18T18:51:56.758Z,20.73
2022-12-18T18:54:25.268Z,18.20
2022-12-18T18:59:39.983Z,19.50
2022-12-18T19:02:12.258Z,20.47
2022-12-18T19:04:44.957Z,19.73
2022-12-18T19:07:22.288Z,20.87
2022-12-18T19:10:04.942Z,19.97
2022-12-18T19:12:52.226Z,18.83
2022-12-18T19:15:19.745Z,17.47
2022-12-18T19:17:47.455Z,18.73
2022-12-18T19:20:15.586Z,20.00
2022-12-18T19:22:42.747Z,18.80
2022-12-18T19:25:10.742Z,18.73
2022-12-18T19:27:40.025Z,21.03
2022-12-18T19:30:09.164Z,19.13
2022-12-18T19:32:36.513Z,18.50
2022-12-18T19:35:04.017Z,18.80
2022-12-18T19:37:31.461Z,18.33
2022-12-18T19:39:58.743Z,18.87
2022-12-18T19:42:34.823Z,18.63
2022-12-18T19:45:06.469Z,18.30
2022-12-18T19:47:33.700Z,18.23
2022-12-18T19:50:00.994Z,18.77
2022-12-18T19:52:28.306Z,19.63
2022-12-18T19:54:55.531Z,17.37
2022-12-18T19:57:22.861Z,18.93
2022-12-18T19:59:50.138Z,20.07
2022-12-18T20:02:19.035Z,19.13
2022-12-18T20:04:46.740Z,19.53
2022-12-18T20:07:14.135Z,19.57
2022-12-18T20:09:41.557Z,19.70
2022-12-18T20:12:09.755Z,18.73
2022-12-18T20:14:37.026Z,20.53
2022-12-18T20:17:04.354Z,18.23
2022-12-18T20:19:32.719Z,18.53
2022-12-18T20:22:01.674Z,20.20
2022-12-18T20:24:29.208Z,18.60
2022-12-18T20:26:56.696Z,20.40
2022-12-18T20:29:24.047Z,18.30
2022-12-18T20:31:51.695Z,17.63
2022-12-18T20:34:19.331Z,18.53
2022-12-18T20:36:46.694Z,18.63
2022-12-18T20:39:16.163Z,18.30
2022-12-18T20:41:45.339Z,20.10
2022-12-18T20:44:22.262Z,18.60
2022-12-18T20:47:00.381Z,18.10
2022-12-18T20:49:31.442Z,20.57
2022-12-18T20:52:02.339Z,17.83
2022-12-18T20:54:29.663Z,19.53
2022-12-18T20:56:57.542Z,18.43
2022-12-18T20:59:25.747Z,18.33
2022-12-18T21:01:53.564Z,18.27
2022-12-18T21:04:21.543Z,19.13
2022-12-18T21:06:54.063Z,17.90
2022-12-18T21:09:25.318Z,17.60
2022-12-18T21:12:13.937Z,17.50
2022-12-18T21:14:42.749Z,19.83
2022-12-18T21:17:10.750Z,19.37
2022-12-18T21:19:38.410Z,18.77
2022-12-18T21:22:05.814Z,17.67
2022-12-18T21:24:33.263Z,19.40
2022-12-18T21:27:00.588Z,17.60
2022-12-18T21:29:28.119Z,18.87
2022-12-18T21:31:55.637Z,17.80
2022-12-18T21:34:28.547Z,19.03
2022-12-18T21:36:57.659Z,19.13
2022-12-18T21:39:26.352Z,18.77
2022-12-18T21:42:12.738Z,18.93
2022-12-18T21:44:42.253Z,18.40
2022-12-18T21:47:20.834Z,19.03
2022-12-18T21:49:53.965Z,20.07
2022-12-18T21:52:27.302Z,18.60
2022-12-18T21:55:08.954Z,17.93
2022-12-18T21:57:39.207Z,19.43
2022-12-18T22:00:18.396Z,19.77
2022-12-18T22:02:47.786Z,18.20
2022-12-18T22:05:15.314Z,18.77
2022-12-18T22:07:42.555Z,18.80
2022-12-18T22:10:10.216Z,20.17
2022-12-18T22:12:43.153Z,18.27
2022-12-18T22:15:19.210Z,19.20
2022-12-18T22:17:50.525Z,18.27
2022-12-18T22:20:20.243Z,19.80
2022-12-18T22:22:48.691Z,20.23
2022-12-18T22:25:16.133Z,18.47
2022-12-18T22:28:04.506Z,19.07
2022-12-18T22:30:31.940Z,18.93
2022-12-18T22:32:59.487Z,20.70
2022-12-18T22:35:26.794Z,18.63
2022-12-18T22:37:54.021Z,19.27
2022-12-18T22:40:25.769Z,19.40
2022-12-18T22:42:54.396Z,20.80
2022-12-18T22:45:21.935Z,19.67
2022-12-18T22:47:49.143Z,20.07
2022-12-18T22:50:16.416Z,17.70
2022-12-18T22:52:43.757Z,20.87
2022-12-18T22:55:11.030Z,20.50
2022-12-18T22:57:38.271Z,18.60
2022-12-18T23:00:08.625Z,18.57
2022-12-18T23:02:35.974Z,19.37
2022-12-18T23:05:03.335Z,19.63
2022-12-18T23:07:33.171Z,19.17
2022-12-18T23:10:01.195Z,20.87
2022-12-18T23:12:28.623Z,20.00
2022-12-18T23:14:56.046Z,19.17
2022-12-18T23:17:23.358Z,20.17
2022-12-18T23:19:51.100Z,19.77
2022-12-18T23:22:18.620Z,19.57
2022-12-18T23:24:46.322Z,18.57
2022-12-18T23:27:13.632Z,20.90
2022-12-18T23:29:40.947Z,18.97
2022-12-18T23:32:08.464Z,19.50
2022-12-18T23:34:35.796Z,19.33
2022-12-18T23:37:03.738Z,19.70
2022-12-18T23:39:31.310Z,20.17
2022-12-18T23:41:59.494Z,18.87
2022-12-18T23:44:26.684Z,20.30
2022-12-18T23:46:55.117Z,19.90
2022-12-18T23:49:22.977Z,20.13
2022-12-18T23:51:50.669Z,19.40
2022-12-18T23:54:25.300Z,21.10
2022-12-18T23:57:00.219Z,22.13
2022-12-18T23:59:27.396Z,21.27
